الصفحة الرئيسية
METAR-TAF:

METAR-TAF

مطار :

ماريبور, سلوفينيا

دائرة عرض: 46-29N, خط طول: 015-41E, ارتفاع: 264 متر

مراقبة الطقس الحالي

تاريخ ووقت الإصدار 30 دقيقة قبل الساعة 22:30UTC
ريح 2 عقدة من الجنوب/الجنوب الشرقي
درجة الحرارة 15°درجة مئوية
الرطوبة 82%
ضغط 1006 hPa
الرؤية 10 كم أو أكثر

METAR: LJMB 032230Z AUTO 15002KT 9999 NSC 15/12 Q1006

زمن: 01:00 (23:00 UTC)

توقعات

تاريخ ووقت الإصدار 6ساعات و 0 دقيقة قبل الساعة 17:00UTC
التوقعات صالحة من03 الساعة 18 UTC إلى 04 الساعة 18 UTC
ريح 5 عقدة من الغرب/الجنوب الغربي
الرؤية 10 كم أو أكثر
غيوم متفرقة على ارتفاع 5000 قدم
نظرية الاحتمالات 30% :
مؤقت
من 03 الساعة 18 UTC إلى 03 الساعة 20 UTC
ريح 15 عقدة من الشمال/الشمال الغربي تتزايد حتى 25 عقدة
الرؤية: 5000 متر
غيوم متفرقة على ارتفاع 4500 قدم, مزنة ركامية.
غيوم مفككة على ارتفاع 6000 قدم
عاصفة رعدية, مطر
أصبح
من 04 الساعة 03 UTC إلى 04 الساعة 06 UTC
ريح 15 عقدة من الجنوب الغربي تتزايد حتى 25 عقدة

TAF: LJMB 031700Z 0318/0418 24005KT 9999 SCT050 PROB30 TEMPO 0318/0320 34015G25KT 5000 TSRA SCT045CB BKN060 BECMG 0403/0406 22015G25KT

أرصاد الطقس والتوقعات من أكثر من 4000 مطار (تقارير الطقس للمطار METAR والتنبؤ بالطقس بالمطارTAF).

المحطات المتاحة هي النقط الصفراء والحمراء على الخريطة.

حرك المؤشر فوق النقطة لمعرفة اسم المحطة.

ثم انقر لمعرفة أرصاد وتوقعات الطقس.

لتغيير الخارطة: اضغط على الأزرار الخضراء مع رمز الصليب الأسود للتكبير. على الزر الأخضر مع شرطة للتصغير، أو على الأسهم الخضراء للخرائط المجاورة.


METAR-TAF: